Time;durP1;ratioP1;P1;durP2;ratioP2;P2;SDS_P1;SDS_P2;PMS_P1;PMS_P2;Temp;Humidity;BMP_temperature;BMP_pressure;BME280_temperature;BME280_humidity;BME280_pressure;Samples;Min_cycle;Max_cycle;Signal;HPM_P1;HPM_P2
2023/10/04 00:01:17;;;;;;;4.33;2.40;;;;;;;12.68;79.49;96723.31;6183147;23;20242;-82
2023/10/04 00:03:43;;;;;;;8.43;2.13;;;;;;;12.59;79.46;96721.50;6157753;23;20173;-81
2023/10/04 00:06:09;;;;;;;3.73;2.27;;;;;;;12.68;79.21;96731.13;6182445;23;20178;-83
2023/10/04 00:08:35;;;;;;;4.17;2.43;;;;;;;12.72;78.98;96726.47;6177898;23;20156;-83
2023/10/04 00:11:01;;;;;;;5.20;2.30;;;;;;;12.67;78.89;96724.25;6179282;23;20163;-84
2023/10/04 00:13:26;;;;;;;3.03;2.20;;;;;;;12.77;78.34;96725.13;6186165;23;20154;-84
2023/10/04 00:15:52;;;;;;;5.83;2.23;;;;;;;12.76;78.47;96733.91;6186235;23;20644;-82
2023/10/04 00:18:17;;;;;;;3.50;2.33;;;;;;;12.56;79.67;96733.97;6161289;23;20159;-83
2023/10/04 00:20:43;;;;;;;6.03;3.43;;;;;;;12.72;78.69;96740.34;6160586;23;20224;-84
2023/10/04 00:23:09;;;;;;;6.67;2.57;;;;;;;12.70;78.54;96739.63;6160176;23;20154;-84
2023/10/04 00:25:35;;;;;;;5.10;2.20;;;;;;;12.71;78.68;96735.25;6160524;23;20217;-84
2023/10/04 00:28:02;;;;;;;6.07;2.10;;;;;;;12.78;78.27;96736.38;6160291;23;20169;-84
2023/10/04 00:30:29;;;;;;;3.37;2.17;;;;;;;12.69;78.62;96737.97;6185645;23;20167;-83
2023/10/04 00:32:55;;;;;;;3.90;2.47;;;;;;;12.67;78.70;96741.69;6185128;23;20724;-84
2023/10/04 00:35:21;;;;;;;3.73;2.60;;;;;;;12.54;79.19;96741.06;6184573;23;20249;-85
2023/10/04 00:37:55;;;;;;;3.33;2.07;;;;;;;12.46;79.58;96737.34;6159508;23;20170;-84
2023/10/04 00:40:23;;;;;;;3.37;2.17;;;;;;;12.46;79.49;96736.53;6160349;23;20582;-84
2023/10/04 00:42:49;;;;;;;5.40;2.00;;;;;;;12.52;79.12;96736.00;6208618;23;20177;-84
2023/10/04 00:45:20;;;;;;;5.33;2.00;;;;;;;12.18;80.73;96733.63;6208800;23;20167;-84
2023/10/04 00:47:47;;;;;;;4.33;2.50;;;;;;;12.34;80.16;96740.97;6184485;23;20254;-85
2023/10/04 00:50:17;;;;;;;4.47;2.23;;;;;;;12.35;79.44;96734.00;6208981;23;20209;-83
2023/10/04 00:52:52;;;;;;;4.23;2.43;;;;;;;12.36;79.39;96735.63;6207369;23;20572;-83
2023/10/04 00:55:19;;;;;;;3.80;1.97;;;;;;;12.25;79.87;96730.50;6183995;23;20190;-84
2023/10/04 00:57:48;;;;;;;4.23;2.27;;;;;;;12.07;81.13;96731.09;6208644;23;20214;-83
2023/10/04 01:00:14;;;;;;;5.53;2.50;;;;;;;12.07;80.95;96733.69;6183505;23;20158;-83
2023/10/04 01:02:39;;;;;;;3.97;2.20;;;;;;;11.78;82.25;96720.47;6182202;23;20186;-84
2023/10/04 01:05:06;;;;;;;4.20;2.10;;;;;;;11.92;81.67;96716.75;6185939;23;20286;-83
2023/10/04 01:07:31;;;;;;;4.47;2.10;;;;;;;11.96;81.67;96719.94;6158520;23;20242;-84
2023/10/04 01:09:58;;;;;;;4.80;2.40;;;;;;;12.01;80.69;96723.78;6158499;23;20157;-83
2023/10/04 01:12:23;;;;;;;3.93;2.07;;;;;;;11.90;81.51;96723.84;6158122;23;20189;-84
2023/10/04 01:14:49;;;;;;;4.63;2.10;;;;;;;11.98;81.30;96729.25;6157718;23;20202;-82
2023/10/04 01:17:15;;;;;;;5.50;2.43;;;;;;;12.00;80.97;96726.53;6183151;23;20158;-83
2023/10/04 01:19:40;;;;;;;4.60;2.30;;;;;;;11.90;81.29;96726.47;6157491;23;20246;-84
2023/10/04 01:22:05;;;;;;;3.07;1.97;;;;;;;11.83;82.05;96726.13;6183892;23;20150;-83
2023/10/04 01:24:33;;;;;;;4.20;2.13;;;;;;;11.80;81.80;96728.19;6183523;23;20194;-82
2023/10/04 01:26:59;;;;;;;4.00;2.17;;;;;;;11.73;81.78;96729.59;6159621;23;20222;-82
2023/10/04 01:29:24;;;;;;;5.03;2.43;;;;;;;11.73;82.16;96727.81;6159319;23;20202;-83
2023/10/04 01:31:49;;;;;;;5.97;2.30;;;;;;;11.77;81.79;96725.81;6159577;23;20158;-83
2023/10/04 01:34:15;;;;;;;3.40;2.03;;;;;;;11.75;81.74;96725.09;6158227;23;20245;-83
2023/10/04 01:36:41;;;;;;;3.87;2.07;;;;;;;11.75;81.98;96720.72;6184605;23;20202;-84
2023/10/04 01:39:07;;;;;;;5.33;2.20;;;;;;;11.74;81.67;96719.06;6159350;23;20502;-84
2023/10/04 01:41:39;;;;;;;5.67;3.10;;;;;;;11.76;81.42;96724.97;6159754;23;20178;-84
2023/10/04 01:44:06;;;;;;;4.70;2.60;;;;;;;11.69;81.63;96717.81;6158748;23;20237;-84
2023/10/04 01:46:32;;;;;;;6.07;2.77;;;;;;;11.61;81.44;96721.84;6183446;23;20182;-84
2023/10/04 01:48:57;;;;;;;5.10;2.60;;;;;;;11.52;82.47;96722.59;6158847;23;20638;-83
2023/10/04 01:51:22;;;;;;;4.27;2.40;;;;;;;11.56;82.54;96716.19;6183624;23;20157;-84
2023/10/04 01:53:48;;;;;;;2.97;2.13;;;;;;;11.64;81.77;96718.16;6157943;23;20197;-83
2023/10/04 01:56:13;;;;;;;4.33;2.60;;;;;;;11.49;82.11;96722.88;6185232;23;20181;-83
2023/10/04 01:58:38;;;;;;;4.87;2.20;;;;;;;11.56;81.87;96715.38;6159298;23;20158;-83
2023/10/04 02:01:05;;;;;;;5.03;2.63;;;;;;;11.48;82.67;96723.78;6159142;23;20178;-83
2023/10/04 02:03:31;;;;;;;4.03;2.40;;;;;;;11.42;82.72;96719.09;6158165;23;20779;-83
2023/10/04 02:05:56;;;;;;;7.87;2.47;;;;;;;11.37;83.00;96710.84;6183069;23;20174;-83
2023/10/04 02:08:22;;;;;;;4.13;2.10;;;;;;;11.39;82.34;96715.91;6183868;23;20230;-83
2023/10/04 02:10:47;;;;;;;4.10;2.57;;;;;;;11.41;82.75;96719.22;6185726;23;20154;-83
2023/10/04 02:13:16;;;;;;;4.70;2.20;;;;;;;11.42;82.28;96719.09;6158219;23;20161;-82
2023/10/04 02:15:43;;;;;;;4.17;2.33;;;;;;;11.45;81.75;96715.41;6160055;23;20195;-83
2023/10/04 02:18:08;;;;;;;5.17;2.23;;;;;;;11.45;81.68;96728.41;6183895;23;20159;-83
2023/10/04 02:20:35;;;;;;;4.03;2.30;;;;;;;11.36;81.93;96722.19;6183574;23;20163;-83
2023/10/04 02:23:03;;;;;;;4.57;2.20;;;;;;;11.31;82.15;96724.34;6182880;23;20158;-84
2023/10/04 02:25:28;;;;;;;3.80;2.43;;;;;;;11.24;81.55;96730.97;6183352;23;20174;-83
2023/10/04 02:28:06;;;;;;;5.80;2.60;;;;;;;11.23;81.75;96722.34;6158516;23;20641;-84
2023/10/04 02:30:31;;;;;;;5.83;2.77;;;;;;;11.25;81.76;96728.25;6161688;23;20142;-84
2023/10/04 02:32:57;;;;;;;4.37;2.07;;;;;;;11.22;81.59;96722.47;6182968;23;20216;-83
2023/10/04 02:35:43;;;;;;;6.93;2.40;;;;;;;11.26;81.42;96732.50;6158118;23;20194;-82
2023/10/04 02:38:16;;;;;;;5.40;2.40;;;;;;;11.22;81.61;96738.06;6162578;23;20154;-83
2023/10/04 02:40:43;;;;;;;7.23;2.70;;;;;;;11.21;81.67;96739.00;6159989;23;20221;-84
2023/10/04 02:43:09;;;;;;;4.40;2.50;;;;;;;11.16;82.13;96734.19;6184228;23;20184;-82
2023/10/04 02:45:36;;;;;;;4.10;2.33;;;;;;;11.16;82.06;96739.41;6158922;23;20202;-84
2023/10/04 02:48:03;;;;;;;4.80;2.00;;;;;;;11.21;81.77;96744.22;6183509;23;20155;-84
2023/10/04 02:50:29;;;;;;;5.33;2.20;;;;;;;11.18;81.50;96741.88;6184614;23;20161;-84
2023/10/04 02:52:56;;;;;;;5.50;2.90;;;;;;;11.19;81.82;96748.72;6158125;23;20615;-82
2023/10/04 02:55:21;;;;;;;9.13;2.47;;;;;;;11.17;81.83;96738.44;6183487;23;20278;-83
2023/10/04 02:57:51;;;;;;;5.67;2.43;;;;;;;11.18;81.36;96750.50;6159164;23;20183;-83
2023/10/04 03:00:19;;;;;;;6.20;2.40;;;;;;;11.15;81.72;96742.94;6184405;23;20157;-84
2023/10/04 03:02:45;;;;;;;4.77;2.97;;;;;;;11.16;81.81;96743.78;6183753;23;20229;-83
2023/10/04 03:05:12;;;;;;;3.77;2.47;;;;;;;11.18;81.56;96742.69;6159181;23;20175;-82
2023/10/04 03:07:38;;;;;;;6.10;2.53;;;;;;;11.20;81.63;96745.16;6185072;23;20569;-83
2023/10/04 03:10:05;;;;;;;4.87;2.43;;;;;;;11.05;82.62;96737.66;6159624;23;20163;-83
2023/10/04 03:12:31;;;;;;;5.47;2.70;;;;;;;11.16;82.06;96739.41;6183297;23;20158;-81
2023/10/04 03:14:56;;;;;;;4.17;2.30;;;;;;;11.21;81.62;96741.63;6157003;23;20186;-81
2023/10/04 03:17:21;;;;;;;7.00;2.80;;;;;;;10.97;82.72;96742.63;6182790;23;20245;-82
2023/10/04 03:19:47;;;;;;;3.37;1.93;;;;;;;11.19;81.56;96743.50;6168140;23;20158;-83
2023/10/04 03:22:18;;;;;;;2.97;2.20;;;;;;;10.95;82.92;96746.28;6183980;23;20158;-84
2023/10/04 03:24:45;;;;;;;7.37;2.37;;;;;;;11.07;82.47;96746.16;6164802;23;20241;-84
2023/10/04 03:27:12;;;;;;;5.03;2.30;;;;;;;11.01;82.97;96751.81;6188355;23;20154;-84
2023/10/04 03:29:37;;;;;;;4.40;2.40;;;;;;;11.02;83.07;96747.44;6161890;23;20166;-84
2023/10/04 03:32:03;;;;;;;7.00;2.90;;;;;;;10.90;83.61;96754.44;6186147;23;20161;-84
2023/10/04 03:34:29;;;;;;;4.43;2.40;;;;;;;10.94;83.76;96749.81;6184848;23;20182;-84
2023/10/04 03:36:54;;;;;;;7.00;2.83;;;;;;;10.96;83.24;96753.16;6185712;23;20822;-84
2023/10/04 03:39:25;;;;;;;4.30;2.27;;;;;;;10.96;82.41;96751.38;6160666;23;20166;-84
2023/10/04 03:41:51;;;;;;;3.37;2.20;;;;;;;10.83;83.52;96752.44;6185347;23;20556;-83
2023/10/04 03:44:16;;;;;;;8.10;3.20;;;;;;;10.90;83.49;96749.25;6184564;23;20202;-84
2023/10/04 03:46:43;;;;;;;7.73;2.30;;;;;;;10.77;83.82;96740.75;6186663;23;20565;-84
2023/10/04 03:49:08;;;;;;;5.87;2.57;;;;;;;10.74;84.26;96747.00;6185855;23;20504;-84
2023/10/04 03:51:34;;;;;;;5.37;2.30;;;;;;;10.77;83.65;96744.16;6184365;23;20186;-83
2023/10/04 03:54:00;;;;;;;4.17;2.20;;;;;;;10.72;84.32;96741.13;6159606;23;20187;-83
2023/10/04 03:56:25;;;;;;;2.70;2.10;;;;;;;10.62;84.35;96749.75;6159612;23;20574;-84
2023/10/04 03:58:51;;;;;;;5.60;2.50;;;;;;;10.63;84.42;96756.59;6159597;23;20190;-85
2023/10/04 04:01:16;;;;;;;4.83;2.37;;;;;;;10.57;84.98;96750.09;6159903;23;20189;-84
2023/10/04 04:03:43;;;;;;;4.30;2.60;;;;;;;10.65;84.08;96749.50;6159449;23;20228;-84
2023/10/04 04:06:09;;;;;;;6.70;2.67;;;;;;;10.59;83.95;96755.16;6159263;23;20653;-84
2023/10/04 04:08:34;;;;;;;5.87;2.20;;;;;;;10.57;84.12;96746.66;6183392;23;20155;-84
2023/10/04 04:11:01;;;;;;;4.23;2.20;;;;;;;10.58;84.39;96756.09;6184631;23;20155;-83
2023/10/04 04:13:26;;;;;;;4.70;2.20;;;;;;;10.71;83.52;96749.84;6160475;23;20163;-82
2023/10/04 04:15:52;;;;;;;6.00;2.23;;;;;;;10.57;83.92;96749.25;6159485;23;20250;-82
2023/10/04 04:18:20;;;;;;;4.43;2.30;;;;;;;10.75;83.37;96748.66;6160674;23;20163;-82
2023/10/04 04:20:49;;;;;;;4.30;2.47;;;;;;;10.68;83.14;96749.25;6160979;23;20163;-84
2023/10/04 04:23:15;;;;;;;6.13;2.80;;;;;;;10.66;83.04;96754.56;6184956;23;20158;-84
2023/10/04 04:25:41;;;;;;;4.97;2.40;;;;;;;10.76;82.62;96757.28;6188275;23;20179;-84
2023/10/04 04:28:14;;;;;;;7.37;2.73;;;;;;;10.70;82.14;96753.41;6186209;23;20245;-84
2023/10/04 04:30:40;;;;;;;6.57;2.20;;;;;;;10.77;82.03;96754.56;6161736;23;20190;-83
2023/10/04 04:33:07;;;;;;;4.57;2.20;;;;;;;10.59;83.36;96750.78;6159349;23;20174;-83
2023/10/04 04:38:22;;;;;;;5.60;2.90;;;;;;;10.44;84.40;96752.81;6184226;23;20142;-83
2023/10/04 04:40:54;;;;;;;4.87;2.63;;;;;;;10.60;83.22;96749.88;6185016;23;20158;-83
2023/10/04 04:45:50;;;;;;;6.23;2.20;;;;;;;10.39;83.88;96751.50;6207489;23;20639;-83
2023/10/04 04:48:18;;;;;;;3.57;1.83;;;;;;;10.57;83.06;96750.09;6159683;23;20622;-83
2023/10/04 04:50:43;;;;;;;4.97;2.83;;;;;;;10.49;83.29;96749.84;6182996;23;20205;-83
2023/10/04 04:53:14;;;;;;;7.57;2.50;;;;;;;10.44;84.31;96752.00;6186656;23;20159;-82
2023/10/04 04:55:39;;;;;;;7.00;2.60;;;;;;;10.44;84.24;96742.44;6160591;23;20186;-82
2023/10/04 04:58:06;;;;;;;5.03;2.40;;;;;;;10.42;84.29;96746.91;6186516;23;20197;-82
2023/10/04 05:00:31;;;;;;;3.83;2.70;;;;;;;10.50;83.94;96754.09;6187988;23;20611;-83
2023/10/04 05:02:57;;;;;;;3.77;2.20;;;;;;;10.40;84.13;96751.38;6162349;23;20163;-83
2023/10/04 05:05:23;;;;;;;6.87;2.33;;;;;;;10.47;83.17;96757.75;6160499;23;20181;-82
2023/10/04 05:07:48;;;;;;;8.07;2.77;;;;;;;10.44;83.40;96752.81;6184950;23;20159;-82
2023/10/04 05:10:17;;;;;;;8.30;2.70;;;;;;;10.47;83.29;96755.16;6184343;23;20666;-82
2023/10/04 05:12:43;;;;;;;4.67;2.20;;;;;;;10.49;83.11;96750.66;6159691;23;20242;-81
2023/10/04 05:15:22;;;;;;;5.37;2.87;;;;;;;10.37;83.41;96751.63;6158951;23;20187;-83
2023/10/04 05:17:50;;;;;;;4.23;2.37;;;;;;;10.35;83.94;96755.28;6162212;23;20143;-80
2023/10/04 05:20:19;;;;;;;4.27;2.20;;;;;;;10.31;84.22;96753.84;6183271;23;20209;-80
2023/10/04 05:22:45;;;;;;;4.37;2.50;;;;;;;10.42;83.38;96756.44;6182309;23;20183;-81
2023/10/04 05:25:11;;;;;;;3.87;2.10;;;;;;;10.31;84.39;96756.44;6184852;23;20500;-79
2023/10/04 05:27:36;;;;;;;6.47;2.53;;;;;;;10.33;84.34;96757.97;6159385;23;20166;-80
2023/10/04 05:30:03;;;;;;;7.03;3.60;;;;;;;10.35;83.50;96758.72;6183427;23;20181;-80
2023/10/04 05:32:29;;;;;;;3.73;2.20;;;;;;;10.44;83.25;96752.81;6182768;23;20615;-78
2023/10/04 05:34:54;;;;;;;3.73;2.00;;;;;;;10.56;82.70;96751.03;6156823;23;20190;-80
2023/10/04 05:37:20;;;;;;;3.53;2.00;;;;;;;10.63;82.03;96757.41;6158128;23;20556;-79
2023/10/04 05:39:45;;;;;;;3.73;2.23;;;;;;;10.50;82.78;96760.13;6157972;23;20163;-79
2023/10/04 05:42:10;;;;;;;8.07;2.23;;;;;;;10.56;82.53;96761.41;6182439;23;20154;-79
2023/10/04 05:44:36;;;;;;;4.33;2.23;;;;;;;10.60;82.35;96762.00;6181855;23;20155;-80
2023/10/04 05:47:01;;;;;;;7.97;2.53;;;;;;;10.56;82.76;96761.41;6158242;23;20158;-80
2023/10/04 05:49:26;;;;;;;7.93;2.30;;;;;;;10.56;82.59;96769.22;6158220;23;20503;-80
2023/10/04 05:51:52;;;;;;;3.90;2.13;;;;;;;10.49;83.02;96766.25;6184636;23;20161;-80
2023/10/04 05:54:17;;;;;;;6.87;2.30;;;;;;;10.64;82.64;96760.84;6157229;23;20182;-80
2023/10/04 05:56:42;;;;;;;5.00;2.40;;;;;;;10.63;82.36;96760.00;6182561;23;20315;-81
2023/10/04 05:59:10;;;;;;;6.27;2.07;;;;;;;10.61;82.93;96751.53;6157556;23;20189;-81
2023/10/04 06:01:37;;;;;;;4.70;2.13;;;;;;;10.80;82.41;96760.47;6156998;23;20155;-79
2023/10/04 06:04:05;;;;;;;5.43;2.10;;;;;;;10.76;82.01;96773.69;6155348;23;20179;-81
2023/10/04 06:06:32;;;;;;;4.87;2.47;;;;;;;10.84;82.20;96767.09;6206240;23;20181;-81
2023/10/04 06:08:58;;;;;;;5.07;2.43;;;;;;;10.73;82.54;96768.75;6154882;23;20573;-80
2023/10/04 06:11:24;;;;;;;4.87;1.83;;;;;;;10.91;81.55;96778.66;6155781;23;20166;-79
2023/10/04 06:13:50;;;;;;;5.27;1.90;;;;;;;10.99;81.49;96774.50;6180139;23;20244;-81
2023/10/04 06:16:19;;;;;;;8.77;2.67;;;;;;;11.07;81.01;96777.34;6179936;23;20326;-80
2023/10/04 06:18:47;;;;;;;4.07;2.10;;;;;;;11.14;80.44;96780.28;6180951;23;20161;-82
2023/10/04 06:21:16;;;;;;;4.83;2.13;;;;;;;11.41;79.82;96784.25;6157232;23;20163;-82
2023/10/04 06:23:43;;;;;;;4.67;2.40;;;;;;;11.41;79.63;96782.47;6156358;23;20162;-82
2023/10/04 06:26:09;;;;;;;3.83;2.03;;;;;;;11.45;79.34;96785.66;6182364;23;20178;-81
2023/10/04 06:28:34;;;;;;;5.57;2.37;;;;;;;11.59;79.17;96793.19;6156714;23;20172;-79
2023/10/04 06:31:02;;;;;;;5.63;2.43;;;;;;;11.78;78.51;96792.50;6157042;23;20170;-82
2023/10/04 06:33:27;;;;;;;4.27;2.10;;;;;;;11.63;78.41;96792.78;6181956;23;20177;-83
2023/10/04 06:35:52;;;;;;;4.90;2.27;;;;;;;11.63;78.85;96797.16;6157203;23;20510;-81
2023/10/04 06:38:18;;;;;;;4.30;2.50;;;;;;;11.73;78.41;96792.06;6157136;23;20155;-82
2023/10/04 06:40:43;;;;;;;4.37;2.10;;;;;;;11.77;78.24;96803.88;6203233;23;20150;-81
2023/10/04 06:43:09;;;;;;;6.70;2.13;;;;;;;11.75;78.07;96810.97;6191355;23;20471;-84
2023/10/04 06:45:36;;;;;;;2.77;2.17;;;;;;;11.93;77.11;96813.88;6182610;23;20179;-82
2023/10/04 06:48:03;;;;;;;3.00;2.00;;;;;;;11.87;77.80;96810.00;6189241;23;20158;-83
2023/10/04 06:50:35;;;;;;;3.57;2.20;;;;;;;11.95;78.06;96815.44;6186762;23;20159;-81
2023/10/04 06:53:02;;;;;;;5.90;1.93;;;;;;;11.73;78.75;96811.09;6185325;23;20139;-82
2023/10/04 06:55:28;;;;;;;3.53;2.00;;;;;;;11.97;77.70;96818.72;6186495;23;20673;-82
2023/10/04 06:57:55;;;;;;;4.33;2.00;;;;;;;11.96;77.60;96822.28;6187081;23;20182;-81
2023/10/04 07:00:22;;;;;;;6.47;2.53;;;;;;;12.12;77.21;96825.28;6185211;23;20258;-81
2023/10/04 07:02:51;;;;;;;5.17;2.13;;;;;;;12.15;77.23;96821.59;6160252;23;20190;-81
2023/10/04 07:05:19;;;;;;;6.00;2.23;;;;;;;12.10;76.92;96819.38;6161072;23;20206;-82
2023/10/04 07:07:45;;;;;;;3.93;1.80;;;;;;;12.37;76.14;96821.50;6211954;23;20166;-83
2023/10/04 07:10:14;;;;;;;6.43;1.97;;;;;;;12.30;76.55;96819.53;6186155;23;20154;-81
2023/10/04 07:12:40;;;;;;;4.20;1.83;;;;;;;12.44;76.33;96812.19;6160268;23;20162;-82
2023/10/04 07:15:06;;;;;;;3.97;2.17;;;;;;;12.63;75.76;96814.09;6157978;23;20190;-81
2023/10/04 07:17:32;;;;;;;4.57;1.80;;;;;;;12.59;75.95;96820.50;6178232;23;20150;-82
2023/10/04 07:19:58;;;;;;;5.17;1.90;;;;;;;12.55;76.28;96813.91;6156204;23;20221;-81
2023/10/04 07:22:29;;;;;;;4.13;2.03;;;;;;;12.68;75.70;96814.53;6156551;23;20695;-82
2023/10/04 07:24:57;;;;;;;8.40;2.50;;;;;;;12.88;75.28;96823.25;6156438;23;20810;-82
2023/10/04 07:27:22;;;;;;;4.73;1.80;;;;;;;13.06;74.80;96833.88;6180058;23;20169;-82
2023/10/04 07:29:47;;;;;;;6.47;2.23;;;;;;;13.16;73.78;96837.34;6155458;23;20167;-82
2023/10/04 07:32:13;;;;;;;10.53;2.17;;;;;;;13.14;73.56;96831.44;6155530;23;20633;-82
2023/10/04 07:34:38;;;;;;;5.73;2.00;;;;;;;13.21;73.45;96834.38;6154927;23;20193;-82
2023/10/04 07:37:04;;;;;;;6.13;2.27;;;;;;;13.21;73.20;96839.59;6153045;23;20170;-82
2023/10/04 07:39:32;;;;;;;5.30;1.70;;;;;;;13.27;72.99;96842.53;6179835;23;20159;-81
2023/10/04 07:41:57;;;;;;;3.77;2.00;;;;;;;13.38;73.03;96843.38;6180849;23;20217;-82
2023/10/04 07:44:24;;;;;;;5.57;1.70;;;;;;;13.40;73.30;96846.66;6157561;23;20166;-83
2023/10/04 07:46:50;;;;;;;7.37;2.00;;;;;;;13.37;72.54;96844.34;6157696;23;20178;-83
2023/10/04 07:49:16;;;;;;;4.27;1.60;;;;;;;13.51;72.83;96849.16;6159878;23;20505;-82
2023/10/04 07:51:42;;;;;;;4.50;1.87;;;;;;;13.63;72.55;96853.31;6187948;23;20158;-81
2023/10/04 07:54:07;;;;;;;7.37;2.00;;;;;;;13.67;71.54;96851.25;6159112;23;20185;-81
2023/10/04 07:56:34;;;;;;;7.23;2.00;;;;;;;13.74;71.38;96855.81;6187656;23;20170;-82
2023/10/04 07:59:01;;;;;;;8.23;1.80;;;;;;;13.67;70.49;96853.88;6161332;23;20229;-83
2023/10/04 08:01:26;;;;;;;4.47;1.40;;;;;;;13.76;69.66;96845.22;6187099;23;20155;-83
2023/10/04 08:03:52;;;;;;;4.37;1.87;;;;;;;13.83;69.94;96848.94;6186876;23;20178;-82
2023/10/04 08:06:18;;;;;;;4.73;1.67;;;;;;;13.97;69.82;96842.50;6160479;23;20178;-83
2023/10/04 08:08:45;;;;;;;7.07;2.03;;;;;;;13.96;68.89;96848.66;6186923;23;20166;-84
2023/10/04 08:11:11;;;;;;;5.43;1.80;;;;;;;13.96;69.25;96843.44;6186935;23;20186;-81
2023/10/04 08:13:38;;;;;;;5.20;1.80;;;;;;;13.95;69.00;96852.25;6186673;23;20162;-83
2023/10/04 08:16:03;;;;;;;9.70;2.97;;;;;;;14.01;68.39;96844.69;6159717;23;20238;-82
2023/10/04 08:18:29;;;;;;;7.10;2.00;;;;;;;13.95;68.09;96852.25;6182840;23;20150;-80
2023/10/04 08:20:54;;;;;;;7.17;1.70;;;;;;;14.21;68.04;96848.13;6183377;23;20245;-80
2023/10/04 08:23:21;;;;;;;7.47;1.60;;;;;;;14.11;67.35;96855.16;6181925;23;20633;-82
2023/10/04 08:25:49;;;;;;;6.97;1.80;;;;;;;13.87;67.73;96856.38;6157010;23;20225;-80
2023/10/04 08:28:15;;;;;;;4.53;1.57;;;;;;;14.17;66.69;96852.00;6159113;23;20161;-80
2023/10/04 08:30:40;;;;;;;5.50;1.70;;;;;;;14.28;67.21;96849.22;6184406;23;20162;-81
2023/10/04 08:33:05;;;;;;;7.97;1.57;;;;;;;14.15;67.11;96854.75;6159066;23;20162;-81
2023/10/04 08:35:36;;;;;;;8.23;1.80;;;;;;;14.26;66.74;96851.16;6184103;23;20190;-82
2023/10/04 08:38:06;;;;;;;6.47;1.83;;;;;;;14.33;67.27;96849.66;6161148;23;20540;-82
2023/10/04 08:40:36;;;;;;;7.03;1.97;;;;;;;14.34;66.58;96840.84;6186407;23;20143;-83
2023/10/04 08:43:02;;;;;;;4.70;1.60;;;;;;;14.42;66.54;96861.06;6209228;23;20237;-82
2023/10/04 08:45:29;;;;;;;4.07;1.50;;;;;;;14.60;66.07;96850.75;6183544;23;20167;-81
2023/10/04 08:47:57;;;;;;;7.40;1.83;;;;;;;14.58;66.11;96850.06;6185956;23;20231;-84
2023/10/04 08:50:30;;;;;;;6.30;1.83;;;;;;;14.73;65.20;96854.69;6163056;23;20178;-82
2023/10/04 08:53:04;;;;;;;4.07;1.90;;;;;;;14.76;65.78;96853.59;6185662;23;20162;-83
2023/10/04 08:55:37;;;;;;;6.00;1.67;;;;;;;14.91;65.03;96849.53;6212490;23;20291;-84
2023/10/04 08:58:03;;;;;;;4.20;1.57;;;;;;;14.98;64.10;96849.81;6188897;23;20158;-84
2023/10/04 09:00:29;;;;;;;8.93;2.37;;;;;;;15.07;64.39;96832.41;6188211;23;20166;-82
2023/10/04 09:02:55;;;;;;;4.73;2.03;;;;;;;15.08;63.76;96839.31;6186882;23;20159;-84
2023/10/04 09:05:23;;;;;;;9.30;1.83;;;;;;;14.99;63.57;96830.53;6213191;23;20163;-84
2023/10/04 09:07:50;;;;;;;7.63;2.00;;;;;;;15.33;62.99;96829.97;6188543;23;20172;-84
2023/10/04 09:10:16;;;;;;;4.13;1.60;;;;;;;15.41;62.70;96832.69;6188890;23;20166;-82
2023/10/04 09:12:42;;;;;;;5.50;1.80;;;;;;;15.45;62.75;96834.03;6162996;23;20157;-82
2023/10/04 09:15:09;;;;;;;7.05;1.50;;;;;;;15.45;62.54;96832.22;6213552;23;20193;-81
2023/10/04 09:17:47;;;;;;;3.83;1.47;;;;;;;15.40;62.10;96831.03;6187241;23;20225;-84
2023/10/04 09:20:15;;;;;;;4.00;2.03;;;;;;;15.48;61.29;96829.34;6213532;23;20150;-82
2023/10/04 09:22:40;;;;;;;3.93;1.80;;;;;;;15.52;62.44;96835.09;6160704;23;20170;-83
2023/10/04 09:25:06;;;;;;;4.47;1.95;;;;;;;15.52;62.35;96824.63;6159873;23;20519;-81
2023/10/04 09:27:31;;;;;;;4.43;1.83;;;;;;;15.65;62.24;96824.31;6182692;23;20162;-80
2023/10/04 09:29:58;;;;;;;4.30;1.65;;;;;;;15.74;61.66;96828.66;6184097;23;20184;-81
2023/10/04 09:32:35;;;;;;;4.97;1.90;;;;;;;15.85;60.43;96821.41;6158766;23;20636;-80
2023/10/04 09:35:00;;;;;;;5.57;1.55;;;;;;;16.07;59.98;96811.44;6182610;23;20266;-82
2023/10/04 09:37:26;;;;;;;7.45;2.00;;;;;;;15.94;59.00;96818.84;6183296;23;20190;-82
2023/10/04 09:40:08;;;;;;;3.30;1.85;;;;;;;16.26;59.62;96824.38;6182788;23;20155;-84
2023/10/04 09:42:53;;;;;;;6.60;1.80;;;;;;;16.25;57.93;96819.28;6184211;23;20154;-82
2023/10/04 09:45:24;;;;;;;6.35;1.88;;;;;;;16.15;57.54;96808.88;6158409;23;20185;-82
2023/10/04 09:47:51;;;;;;;5.75;1.92;;;;;;;16.15;57.06;96812.31;6184904;23;20199;-82
2023/10/04 09:50:22;;;;;;;3.60;1.70;;;;;;;16.03;57.08;96808.28;6184656;23;20159;-83
2023/10/04 09:52:47;;;;;;;8.48;1.42;;;;;;;16.23;56.56;96803.69;6183750;23;20154;-82
2023/10/04 09:55:13;;;;;;;6.40;1.85;;;;;;;16.17;56.63;96806.94;6183298;23;20187;-80
2023/10/04 09:57:42;;;;;;;4.20;1.33;;;;;;;16.32;55.50;96807.22;6158285;23;20666;-83
2023/10/04 10:00:12;;;;;;;5.97;1.63;;;;;;;16.30;55.38;96812.59;6159648;23;20254;-84
2023/10/04 10:02:39;;;;;;;3.88;1.58;;;;;;;16.40;55.80;96812.50;6184442;23;20230;-83
2023/10/04 10:05:06;;;;;;;5.28;1.60;;;;;;;16.66;54.88;96815.97;6184120;23;20213;-80
2023/10/04 10:07:34;;;;;;;6.22;1.90;;;;;;;16.64;55.22;96824.97;6157706;23;20216;-77
2023/10/04 10:10:11;;;;;;;3.75;1.60;;;;;;;16.97;55.00;96821.59;6157851;23;20154;-78
2023/10/04 10:12:37;;;;;;;3.95;1.80;;;;;;;16.94;55.39;96821.06;6203670;23;20146;-77
2023/10/04 10:15:04;;;;;;;5.65;1.40;;;;;;;17.06;55.48;96826.91;6157882;23;20239;-82
2023/10/04 10:17:30;;;;;;;6.45;1.98;;;;;;;16.97;53.52;96818.16;6183382;23;20166;-81
2023/10/04 10:19:59;;;;;;;4.78;1.60;;;;;;;16.83;54.43;96826.59;6208891;23;20154;-82
2023/10/04 10:22:25;;;;;;;4.68;1.50;;;;;;;16.64;54.39;96824.97;6208264;23;20165;-82
2023/10/04 10:24:56;;;;;;;4.20;1.77;;;;;;;16.12;55.24;96825.72;6156821;23;20234;-78
2023/10/04 10:27:23;;;;;;;5.13;1.98;;;;;;;16.15;55.61;96828.03;6189492;23;20179;-78
2023/10/04 10:29:50;;;;;;;3.38;1.40;;;;;;;15.96;55.50;96828.19;6188021;23;20171;-79
2023/10/04 10:32:23;;;;;;;2.55;1.40;;;;;;;16.35;55.28;96828.72;6215167;23;20165;-80
2023/10/04 10:34:50;;;;;;;3.70;1.58;;;;;;;16.34;54.32;96828.84;6188879;23;20175;-80
2023/10/04 10:37:25;;;;;;;6.15;1.88;;;;;;;16.51;54.11;96830.59;6214229;23;20166;-77
2023/10/04 10:39:52;;;;;;;5.05;2.13;;;;;;;16.72;54.20;96824.25;6182046;23;20142;-79
2023/10/04 10:42:18;;;;;;;3.40;1.38;;;;;;;16.85;52.36;96827.25;6181351;23;20213;-82
2023/10/04 10:44:44;;;;;;;2.85;1.40;;;;;;;17.33;51.87;96821.44;6206778;23;20599;-81
2023/10/04 10:47:25;;;;;;;2.60;1.40;;;;;;;17.23;52.01;96816.31;6182757;23;20602;-82
2023/10/04 10:50:01;;;;;;;3.40;1.67;;;;;;;17.59;51.22;96821.34;6157371;23;20157;-82
2023/10/04 10:52:38;;;;;;;5.63;1.42;;;;;;;17.68;50.75;96812.50;6183153;23;20747;-82
2023/10/04 10:55:17;;;;;;;3.97;1.60;;;;;;;17.73;50.56;96809.41;6185174;23;20248;-82
2023/10/04 10:57:44;;;;;;;3.60;1.40;;;;;;;17.75;48.85;96810.88;6157945;23;20147;-82
2023/10/04 11:02:42;;;;;;;3.45;1.40;;;;;;;17.56;49.21;96803.28;6183402;23;20147;-81
2023/10/04 11:05:09;;;;;;;3.22;1.55;;;;;;;17.62;49.28;96812.31;6163845;23;20177;-82
2023/10/04 11:07:36;;;;;;;2.83;1.42;;;;;;;17.14;49.52;96813.78;6159844;23;20245;-82
2023/10/04 11:10:03;;;;;;;4.80;1.30;;;;;;;17.50;48.31;96810.00;6183824;23;20205;-81
2023/10/04 11:12:33;;;;;;;3.15;1.50;;;;;;;17.69;49.46;96806.28;6185477;23;20155;-81
2023/10/04 11:14:59;;;;;;;1.90;1.30;;;;;;;17.64;50.59;96799.84;6188260;23;20194;-80
2023/10/04 11:17:24;;;;;;;2.60;1.40;;;;;;;17.67;48.14;96799.50;6167345;23;20346;-82
2023/10/04 11:19:52;;;;;;;6.03;1.70;;;;;;;17.74;49.45;96801.38;6187984;23;20150;-82
2023/10/04 11:22:19;;;;;;;3.65;1.42;;;;;;;17.77;50.78;96801.06;6186676;23;20175;-79
2023/10/04 11:24:45;;;;;;;5.75;1.38;;;;;;;17.35;50.53;96801.09;6159843;23;20211;-82
2023/10/04 11:27:11;;;;;;;5.57;1.50;;;;;;;17.45;50.72;96795.69;6185889;23;20209;-82
2023/10/04 11:29:37;;;;;;;6.65;1.90;;;;;;;17.80;51.19;96792.84;6185403;23;20229;-80
2023/10/04 11:32:02;;;;;;;7.30;1.70;;;;;;;17.45;49.08;96798.31;6210658;23;20155;-82
2023/10/04 11:34:35;;;;;;;3.25;1.58;;;;;;;17.09;50.55;96795.91;6182179;23;20190;-78
2023/10/04 11:37:01;;;;;;;2.20;1.17;;;;;;;17.60;50.88;96801.97;6182041;23;20178;-79
2023/10/04 11:39:33;;;;;;;4.60;1.60;;;;;;;17.36;50.41;96796.66;6182693;23;20165;-78
2023/10/04 11:42:00;;;;;;;3.45;1.50;;;;;;;17.51;50.13;96798.50;6185116;23;20239;-79